createdAt,value
2019-05-03T00:00:02.801Z,100.00
2019-05-03T00:02:42.769Z,100.00
2019-05-03T00:05:13.810Z,100.00
2019-05-03T00:07:43.096Z,100.00
2019-05-03T00:10:13.039Z,100.00
2019-05-03T00:12:42.406Z,100.00
2019-05-03T00:15:28.727Z,100.00
2019-05-03T00:17:58.053Z,100.00
2019-05-03T00:20:27.565Z,100.00
2019-05-03T00:22:56.882Z,100.00
2019-05-03T00:25:27.010Z,100.00
2019-05-03T00:27:56.395Z,100.00
2019-05-03T00:30:25.915Z,100.00
2019-05-03T00:32:55.312Z,100.00
2019-05-03T00:35:35.122Z,100.00
2019-05-03T00:38:06.200Z,100.00
2019-05-03T00:40:35.601Z,100.00
2019-05-03T00:43:04.979Z,100.00
2019-05-03T00:45:34.303Z,100.00
2019-05-03T00:48:03.670Z,100.00
2019-05-03T00:50:32.979Z,100.00
2019-05-03T00:53:02.508Z,100.00
2019-05-03T00:55:32.788Z,100.00
2019-05-03T00:58:02.602Z,100.00
2019-05-03T01:00:32.387Z,100.00
2019-05-03T01:03:02.201Z,100.00
2019-05-03T01:05:33.171Z,100.00
2019-05-03T01:08:02.589Z,100.00
2019-05-03T01:10:33.061Z,100.00
2019-05-03T01:13:02.497Z,100.00
2019-05-03T01:15:36.724Z,100.00
2019-05-03T01:18:07.765Z,100.00
2019-05-03T01:20:37.054Z,100.00
2019-05-03T01:23:06.536Z,100.00
2019-05-03T01:25:35.845Z,100.00
2019-05-03T01:28:05.338Z,100.00
2019-05-03T01:30:34.649Z,100.00
2019-05-03T01:33:03.984Z,100.00
2019-05-03T01:35:33.520Z,100.00
2019-05-03T01:38:02.843Z,100.00
2019-05-03T01:40:32.718Z,100.00
2019-05-03T01:43:02.361Z,100.00
2019-05-03T01:45:31.996Z,100.00
2019-05-03T01:48:09.345Z,100.00
2019-05-03T01:50:40.299Z,100.00
2019-05-03T01:53:12.543Z,100.00
2019-05-03T01:55:52.295Z,100.00
2019-05-03T01:58:22.921Z,100.00
2019-05-03T02:01:12.608Z,100.00
2019-05-03T02:03:43.812Z,100.00
2019-05-03T02:06:13.182Z,100.00
2019-05-03T02:08:42.736Z,100.00
2019-05-03T02:11:12.106Z,100.00
2019-05-03T02:13:42.745Z,100.00
2019-05-03T02:16:12.134Z,100.00
2019-05-03T02:18:42.429Z,100.00
2019-05-03T02:21:12.320Z,100.00
2019-05-03T02:23:42.723Z,100.00
2019-05-03T02:26:11.954Z,100.00
2019-05-03T02:28:42.141Z,100.00
2019-05-03T02:31:13.718Z,100.00
2019-05-03T02:33:43.393Z,100.00
2019-05-03T02:36:13.734Z,100.00
2019-05-03T02:38:43.622Z,100.00
2019-05-03T02:41:13.651Z,100.00
2019-05-03T02:43:59.521Z,100.00
2019-05-03T02:46:35.863Z,100.00
2019-05-03T02:49:15.403Z,100.00
2019-05-03T02:51:46.099Z,100.00
2019-05-03T02:54:15.906Z,100.00
2019-05-03T02:56:45.997Z,100.00
2019-05-03T02:59:16.066Z,100.00
2019-05-03T03:01:46.749Z,100.00
2019-05-03T03:04:17.136Z,100.00
2019-05-03T03:06:47.798Z,100.00
2019-05-03T03:09:19.322Z,100.00
2019-05-03T03:11:50.937Z,100.00
2019-05-03T03:14:22.068Z,100.00
2019-05-03T03:16:52.103Z,100.00
2019-05-03T03:19:26.020Z,100.00
2019-05-03T03:21:57.871Z,100.00
2019-05-03T03:24:29.833Z,100.00
2019-05-03T03:27:01.062Z,100.00
2019-05-03T03:29:31.682Z,100.00
2019-05-03T03:32:11.443Z,100.00
2019-05-03T03:35:03.221Z,100.00
2019-05-03T03:37:29.855Z,100.00
2019-05-03T03:39:59.468Z,100.00
2019-05-03T03:42:31.187Z,100.00
2019-05-03T03:45:02.073Z,100.00
2019-05-03T03:47:35.872Z,100.00
2019-05-03T03:50:06.163Z,100.00
2019-05-03T03:52:36.980Z,100.00
2019-05-03T03:55:07.612Z,100.00
2019-05-03T03:57:37.181Z,100.00
2019-05-03T04:00:08.024Z,100.00
2019-05-03T04:02:39.165Z,100.00
2019-05-03T04:05:09.735Z,100.00
2019-05-03T04:07:39.287Z,100.00
2019-05-03T04:10:09.895Z,100.00
2019-05-03T04:12:40.520Z,100.00
2019-05-03T04:15:28.744Z,100.00
2019-05-03T04:18:08.646Z,100.00
2019-05-03T04:20:38.883Z,100.00
2019-05-03T04:23:08.303Z,100.00
2019-05-03T04:25:37.878Z,100.00
2019-05-03T04:28:08.142Z,100.00
2019-05-03T04:30:37.461Z,100.00
2019-05-03T04:33:07.034Z,100.00
2019-05-03T04:35:36.819Z,100.00
2019-05-03T04:38:06.277Z,100.00
2019-05-03T04:40:36.072Z,100.00
2019-05-03T04:43:06.264Z,100.00
2019-05-03T04:45:36.792Z,100.00
2019-05-03T04:48:06.726Z,100.00
2019-05-03T04:50:36.934Z,100.00
2019-05-03T04:53:06.335Z,100.00
2019-05-03T04:55:36.467Z,100.00
2019-05-03T04:58:06.015Z,100.00
2019-05-03T05:00:36.048Z,100.00
2019-05-03T05:03:06.057Z,100.00
2019-05-03T05:05:36.340Z,100.00
2019-05-03T05:08:06.253Z,100.00
2019-05-03T05:10:36.231Z,100.00
2019-05-03T05:13:05.813Z,100.00
2019-05-03T05:15:35.492Z,100.00
2019-05-03T05:18:16.330Z,100.00
2019-05-03T05:20:56.016Z,100.00
2019-05-03T05:23:25.373Z,100.00
2019-05-03T05:26:11.633Z,100.00
2019-05-03T05:28:45.967Z,100.00
2019-05-03T05:31:15.445Z,100.00
2019-05-03T05:33:44.857Z,100.00
2019-05-03T05:36:15.297Z,100.00
2019-05-03T05:38:45.163Z,100.00
2019-05-03T05:41:15.604Z,100.00
2019-05-03T05:43:45.033Z,100.00
2019-05-03T05:46:15.002Z,100.00
2019-05-03T05:48:45.914Z,100.00
2019-05-03T05:51:16.128Z,100.00
2019-05-03T05:53:45.542Z,100.00
2019-05-03T05:56:16.606Z,100.00
2019-05-03T05:58:47.661Z,100.00
2019-05-03T06:01:25.030Z,100.00
2019-05-03T06:03:55.125Z,100.00
2019-05-03T06:06:29.038Z,100.00
2019-05-03T06:08:59.965Z,100.00
2019-05-03T06:11:36.701Z,100.00
2019-05-03T06:14:24.531Z,100.00
2019-05-03T06:16:58.607Z,100.00
2019-05-03T06:19:29.541Z,100.00
2019-05-03T06:22:12.726Z,100.00
2019-05-03T06:24:45.223Z,100.00
2019-05-03T06:27:24.317Z,100.00
2019-05-03T06:29:54.916Z,100.00
2019-05-03T06:32:25.884Z,100.00
2019-05-03T06:34:55.191Z,100.00
2019-05-03T06:37:26.131Z,100.00
2019-05-03T06:39:55.443Z,100.00
2019-05-03T06:42:25.466Z,100.00
2019-05-03T06:44:59.188Z,100.00
2019-05-03T06:47:28.547Z,100.00
2019-05-03T06:49:57.842Z,100.00
2019-05-03T06:52:29.319Z,100.00
2019-05-03T06:55:00.399Z,100.00
2019-05-03T06:57:29.428Z,100.00
2019-05-03T07:00:16.239Z,100.00
2019-05-03T07:02:47.205Z,100.00
2019-05-03T07:05:21.129Z,100.00
2019-05-03T07:07:57.835Z,100.00
2019-05-03T07:10:38.059Z,100.00
2019-05-03T07:13:09.035Z,100.00
2019-05-03T07:15:38.321Z,100.00
2019-05-03T07:18:07.640Z,100.00
2019-05-03T07:20:50.597Z,98.79
2019-05-03T07:23:19.902Z,95.33
2019-05-03T07:25:49.173Z,97.10
2019-05-03T07:28:18.595Z,93.71
2019-05-03T07:30:47.877Z,95.77
2019-05-03T07:33:25.467Z,92.88
2019-05-03T07:35:55.207Z,97.00
2019-05-03T07:38:24.924Z,95.11
2019-05-03T07:40:55.020Z,94.32
2019-05-03T07:43:24.679Z,95.58
2019-05-03T07:45:55.273Z,94.50
2019-05-03T07:48:25.599Z,92.23
2019-05-03T07:50:55.039Z,90.82
2019-05-03T07:53:25.300Z,93.25
2019-05-03T07:56:05.373Z,93.17
2019-05-03T07:58:37.022Z,94.47
2019-05-03T08:01:25.174Z,91.08
2019-05-03T08:03:55.141Z,86.90
2019-05-03T08:06:24.895Z,91.03
2019-05-03T08:08:54.598Z,89.89
2019-05-03T08:11:24.891Z,91.69
2019-05-03T08:13:54.967Z,92.23
2019-05-03T08:16:25.259Z,91.54
2019-05-03T08:18:55.873Z,93.63
2019-05-03T08:21:25.485Z,92.53
2019-05-03T08:23:55.727Z,91.85
2019-05-03T08:26:25.897Z,91.02
2019-05-03T08:28:55.414Z,90.62
2019-05-03T08:31:26.641Z,87.79
2019-05-03T08:34:00.832Z,89.72
2019-05-03T08:36:31.770Z,87.06
2019-05-03T08:39:01.697Z,87.05
2019-05-03T08:41:32.752Z,88.18
2019-05-03T08:44:02.437Z,89.36
2019-05-03T08:46:32.018Z,88.20
2019-05-03T08:49:02.051Z,92.63
2019-05-03T08:51:31.365Z,90.46
2019-05-03T08:54:00.651Z,86.55
2019-05-03T08:56:30.237Z,85.60
2019-05-03T08:58:59.526Z,88.80
2019-05-03T09:01:28.902Z,86.75
2019-05-03T09:03:58.186Z,84.81
2019-05-03T09:06:27.487Z,87.43
2019-05-03T09:08:57.363Z,85.84
2019-05-03T09:11:34.007Z,87.68
2019-05-03T09:14:04.446Z,87.69
2019-05-03T09:16:35.447Z,86.17
2019-05-03T09:19:05.617Z,88.76
2019-05-03T09:21:35.486Z,89.18
2019-05-03T09:24:05.208Z,89.27
2019-05-03T09:26:35.152Z,90.43
2019-05-03T09:29:05.772Z,87.55
2019-05-03T09:31:35.365Z,85.11
2019-05-03T09:34:08.310Z,83.76
2019-05-03T09:36:37.384Z,82.95
2019-05-03T09:39:08.436Z,81.97
2019-05-03T09:41:37.819Z,82.99
2019-05-03T09:44:07.359Z,82.24
2019-05-03T09:46:36.657Z,80.12
2019-05-03T09:49:13.368Z,80.43
2019-05-03T09:51:37.148Z,78.03
2019-05-03T09:54:10.894Z,76.61
2019-05-03T09:57:00.164Z,76.84
2019-05-03T09:59:30.383Z,79.07
2019-05-03T10:02:01.130Z,76.44
2019-05-03T10:04:30.507Z,76.43
2019-05-03T10:06:59.832Z,77.71
2019-05-03T10:09:29.111Z,78.90
2019-05-03T10:11:58.975Z,73.42
2019-05-03T10:14:28.245Z,72.86
2019-05-03T10:17:05.548Z,67.74
2019-05-03T10:19:40.118Z,65.10
2019-05-03T10:22:06.255Z,56.96
2019-05-03T10:24:36.076Z,59.81
2019-05-03T10:27:05.714Z,59.61
2019-05-03T10:29:35.325Z,55.58
2019-05-03T10:32:21.546Z,58.17
2019-05-03T10:34:55.460Z,62.10
2019-05-03T10:37:29.611Z,63.03
2019-05-03T10:40:01.349Z,64.69
2019-05-03T10:42:31.263Z,62.61
2019-05-03T10:45:00.959Z,62.16
2019-05-03T10:47:30.296Z,59.70
2019-05-03T10:49:59.763Z,61.87
2019-05-03T10:52:30.682Z,61.00
2019-05-03T10:54:59.997Z,61.52
2019-05-03T10:57:30.916Z,57.49
2019-05-03T11:00:00.238Z,62.60
2019-05-03T11:02:35.117Z,61.86
2019-05-03T11:05:07.091Z,66.64
2019-05-03T11:07:36.394Z,66.19
2019-05-03T11:10:07.550Z,70.38
2019-05-03T11:12:36.836Z,72.83
2019-05-03T11:15:08.532Z,70.42
2019-05-03T11:17:37.848Z,70.06
2019-05-03T11:20:07.800Z,67.31
2019-05-03T11:22:37.126Z,69.14
2019-05-03T11:25:07.264Z,67.34
2019-05-03T11:27:38.197Z,65.62
2019-05-03T11:30:09.596Z,63.85
2019-05-03T11:32:55.734Z,65.12
2019-05-03T11:35:29.747Z,65.58
2019-05-03T11:38:00.716Z,64.24
2019-05-03T11:40:30.140Z,66.76
2019-05-03T11:43:01.252Z,62.23
2019-05-03T11:45:30.648Z,66.72
2019-05-03T11:48:00.699Z,63.98
2019-05-03T11:50:30.005Z,69.76
2019-05-03T11:52:59.292Z,67.43
2019-05-03T11:55:28.933Z,70.07
2019-05-03T11:57:58.236Z,69.64
2019-05-03T12:00:29.253Z,66.75
2019-05-03T12:03:00.211Z,66.64
2019-05-03T12:05:31.340Z,67.08
2019-05-03T12:08:00.699Z,66.31
2019-05-03T12:10:46.262Z,64.26
2019-05-03T12:13:05.653Z,59.58
2019-05-03T12:15:35.422Z,55.57
2019-05-03T12:18:07.781Z,56.48
2019-05-03T12:20:39.314Z,53.29
2019-05-03T12:23:09.674Z,53.44
2019-05-03T12:25:40.699Z,55.87
2019-05-03T12:28:10.718Z,58.65
2019-05-03T12:30:40.370Z,56.07
2019-05-03T12:33:09.875Z,56.37
2019-05-03T12:35:39.420Z,56.36
2019-05-03T12:38:08.743Z,58.97
2019-05-03T12:40:38.260Z,50.74
2019-05-03T12:43:07.745Z,53.18
2019-05-03T12:45:37.288Z,54.60
2019-05-03T12:48:06.888Z,50.70
2019-05-03T12:50:36.585Z,53.56
2019-05-03T12:53:06.225Z,51.35
2019-05-03T12:55:35.840Z,50.45
2019-05-03T12:58:06.293Z,49.72
2019-05-03T13:00:52.646Z,54.48
2019-05-03T13:03:26.362Z,50.33
2019-05-03T13:05:55.722Z,54.12
2019-05-03T13:08:35.978Z,52.68
2019-05-03T13:11:06.509Z,56.82
2019-05-03T13:13:36.244Z,55.78
2019-05-03T13:16:07.021Z,52.58
2019-05-03T13:18:36.332Z,52.45
2019-05-03T13:21:06.360Z,51.14
2019-05-03T13:23:35.936Z,56.23
2019-05-03T13:26:06.149Z,51.92
2019-05-03T13:28:35.974Z,52.47
2019-05-03T13:31:06.179Z,47.75
2019-05-03T13:33:35.816Z,48.80
2019-05-03T13:36:06.061Z,51.69
2019-05-03T13:38:35.410Z,50.14
2019-05-03T13:41:06.562Z,53.64
2019-05-03T13:43:36.101Z,54.03
2019-05-03T13:46:05.686Z,55.29
2019-05-03T13:48:42.560Z,53.17
2019-05-03T13:51:06.064Z,56.09
2019-05-03T13:53:35.566Z,52.35
2019-05-03T13:56:05.308Z,52.35
2019-05-03T13:58:35.910Z,51.54
2019-05-03T14:01:05.894Z,52.21
2019-05-03T14:03:36.008Z,57.23
2019-05-03T14:06:08.704Z,55.07
2019-05-03T14:08:36.462Z,56.68
2019-05-03T14:11:05.855Z,54.15
2019-05-03T14:13:35.721Z,57.02
2019-05-03T14:16:06.158Z,55.92
2019-05-03T14:18:36.017Z,54.07
2019-05-03T14:21:10.018Z,55.03
2019-05-03T14:23:57.223Z,55.75
2019-05-03T14:26:26.540Z,53.38
2019-05-03T14:28:55.895Z,54.27
2019-05-03T14:31:25.383Z,54.99
2019-05-03T14:33:55.829Z,54.66
2019-05-03T14:36:25.514Z,56.54
2019-05-03T14:38:55.108Z,57.69
2019-05-03T14:41:25.577Z,60.93
2019-05-03T14:43:55.805Z,60.36
2019-05-03T14:46:32.617Z,59.42
2019-05-03T14:48:56.487Z,59.72
2019-05-03T14:51:25.798Z,59.34
2019-05-03T14:53:57.018Z,60.84
2019-05-03T14:56:28.474Z,62.14
2019-05-03T14:59:15.584Z,59.11
2019-05-03T15:01:46.553Z,62.37
2019-05-03T15:04:15.839Z,63.91
2019-05-03T15:06:46.068Z,68.28
2019-05-03T15:09:18.605Z,69.31
2019-05-03T15:11:46.778Z,63.84
2019-05-03T15:14:16.092Z,64.44
2019-05-03T15:16:45.404Z,63.36
2019-05-03T15:19:14.898Z,65.06
2019-05-03T15:21:45.266Z,64.74
2019-05-03T15:24:14.733Z,65.22
2019-05-03T15:26:44.760Z,65.46
2019-05-03T15:29:15.593Z,66.80
2019-05-03T15:31:45.086Z,63.25
2019-05-03T15:34:15.225Z,65.62
2019-05-03T15:36:45.140Z,65.66
2019-05-03T15:39:15.447Z,67.02
2019-05-03T15:41:45.046Z,67.36
2019-05-03T15:44:18.851Z,64.98
2019-05-03T15:46:49.936Z,65.86
2019-05-03T15:49:19.234Z,67.70
2019-05-03T15:51:48.510Z,70.66
2019-05-03T15:54:17.888Z,72.31
2019-05-03T15:56:47.372Z,70.44
2019-05-03T15:59:16.843Z,73.07
2019-05-03T16:01:46.324Z,71.50
2019-05-03T16:04:15.644Z,75.03
2019-05-03T16:06:45.022Z,78.44
2019-05-03T16:09:15.400Z,79.76
2019-05-03T16:11:45.200Z,76.05
2019-05-03T16:14:15.324Z,80.34
2019-05-03T16:16:45.182Z,84.67
2019-05-03T16:19:14.781Z,82.93
2019-05-03T16:21:45.237Z,83.06
2019-05-03T16:24:15.446Z,84.59
2019-05-03T16:26:47.028Z,83.59
2019-05-03T16:29:16.597Z,85.78
2019-05-03T16:31:46.795Z,89.85
2019-05-03T16:34:16.119Z,91.21
2019-05-03T16:36:45.584Z,92.38
2019-05-03T16:39:15.440Z,92.29
2019-05-03T16:41:45.052Z,92.08
2019-05-03T16:44:14.644Z,93.60
2019-05-03T16:46:45.621Z,92.60
2019-05-03T16:49:15.703Z,93.47
2019-05-03T16:51:45.293Z,96.04
2019-05-03T16:54:16.408Z,93.24
2019-05-03T16:56:45.983Z,93.91
2019-05-03T16:59:17.490Z,95.79
2019-05-03T17:01:46.534Z,95.61
2019-05-03T17:04:25.079Z,97.45
2019-05-03T17:07:02.489Z,98.80
2019-05-03T17:09:45.468Z,96.90
2019-05-03T17:12:16.584Z,98.96
2019-05-03T17:14:46.488Z,99.11
2019-05-03T17:17:15.818Z,100.00
2019-05-03T17:19:45.944Z,100.00
2019-05-03T17:22:17.447Z,100.00
2019-05-03T17:24:46.581Z,100.00
2019-05-03T17:27:15.978Z,100.00
2019-05-03T17:29:46.523Z,100.00
2019-05-03T17:32:15.929Z,100.00
2019-05-03T17:34:45.436Z,100.00
2019-05-03T17:37:14.928Z,100.00
2019-05-03T17:39:48.822Z,100.00
2019-05-03T17:42:35.751Z,100.00
2019-05-03T17:45:06.372Z,100.00
2019-05-03T17:47:35.720Z,100.00
2019-05-03T17:50:07.308Z,100.00
2019-05-03T17:52:41.059Z,100.00
2019-05-03T17:55:12.464Z,100.00
2019-05-03T17:57:46.168Z,100.00
2019-05-03T18:00:20.476Z,100.00
2019-05-03T18:02:50.912Z,100.00
2019-05-03T18:05:37.771Z,100.00
2019-05-03T18:08:24.994Z,100.00
2019-05-03T18:10:56.381Z,100.00
2019-05-03T18:13:25.852Z,100.00
2019-05-03T18:15:55.206Z,100.00
2019-05-03T18:18:25.263Z,100.00
2019-05-03T18:20:55.495Z,100.00
2019-05-03T18:23:25.083Z,100.00
2019-05-03T18:25:54.835Z,100.00
2019-05-03T18:28:24.969Z,100.00
2019-05-03T18:30:54.832Z,100.00
2019-05-03T18:33:24.723Z,100.00
2019-05-03T18:35:55.033Z,100.00
2019-05-03T18:38:25.393Z,100.00
2019-05-03T18:40:55.384Z,100.00
2019-05-03T18:43:35.503Z,100.00
2019-05-03T18:46:23.059Z,100.00
2019-05-03T18:48:52.711Z,100.00
2019-05-03T18:51:22.268Z,100.00
2019-05-03T18:53:51.586Z,100.00
2019-05-03T18:56:20.988Z,100.00
2019-05-03T18:58:50.312Z,100.00
2019-05-03T19:01:19.797Z,100.00
2019-05-03T19:03:50.856Z,100.00
2019-05-03T19:06:20.151Z,100.00
2019-05-03T19:08:59.947Z,100.00
2019-05-03T19:11:31.004Z,100.00
2019-05-03T19:14:01.907Z,100.00
2019-05-03T19:16:38.855Z,100.00
2019-05-03T19:19:09.611Z,100.00
2019-05-03T19:21:39.384Z,100.00
2019-05-03T19:24:10.099Z,100.00
2019-05-03T19:26:39.812Z,100.00
2019-05-03T19:29:09.334Z,100.00
2019-05-03T19:31:39.580Z,100.00
2019-05-03T19:34:09.198Z,100.00
2019-05-03T19:36:38.533Z,100.00
2019-05-03T19:39:08.313Z,100.00
2019-05-03T19:41:38.057Z,100.00
2019-05-03T19:44:07.479Z,100.00
2019-05-03T19:46:37.229Z,100.00
2019-05-03T19:49:06.525Z,100.00
2019-05-03T19:51:36.540Z,100.00
2019-05-03T19:54:06.082Z,100.00
2019-05-03T19:56:35.492Z,100.00
2019-05-03T19:59:06.517Z,100.00
2019-05-03T20:01:40.676Z,100.00
2019-05-03T20:04:27.432Z,100.00
2019-05-03T20:06:58.396Z,100.00
2019-05-03T20:09:28.635Z,100.00
2019-05-03T20:11:58.347Z,100.00
2019-05-03T20:14:27.847Z,100.00
2019-05-03T20:16:57.269Z,100.00
2019-05-03T20:19:26.564Z,100.00
2019-05-03T20:21:56.646Z,100.00
2019-05-03T20:24:26.570Z,100.00
2019-05-03T20:26:56.572Z,100.00
2019-05-03T20:29:25.865Z,100.00
2019-05-03T20:31:55.387Z,100.00
2019-05-03T20:34:25.015Z,100.00
2019-05-03T20:36:54.928Z,100.00
2019-05-03T20:39:25.393Z,100.00
2019-05-03T20:41:55.241Z,100.00
2019-05-03T20:44:32.457Z,100.00
2019-05-03T20:47:04.413Z,100.00
2019-05-03T20:49:34.703Z,100.00
2019-05-03T20:52:04.830Z,100.00
2019-05-03T20:54:35.020Z,100.00
2019-05-03T20:57:05.499Z,100.00
2019-05-03T20:59:45.874Z,100.00
2019-05-03T21:02:08.964Z,100.00
2019-05-03T21:04:38.411Z,100.00
2019-05-03T21:07:08.450Z,100.00
2019-05-03T21:09:37.814Z,100.00
2019-05-03T21:12:07.427Z,100.00
2019-05-03T21:14:36.746Z,100.00
2019-05-03T21:17:10.783Z,100.00
2019-05-03T21:19:57.889Z,100.00
2019-05-03T21:22:28.462Z,100.00
2019-05-03T21:25:02.382Z,100.00
2019-05-03T21:27:31.760Z,100.00
2019-05-03T21:30:01.234Z,100.00
2019-05-03T21:32:30.638Z,100.00
2019-05-03T21:35:00.044Z,100.00
2019-05-03T21:37:29.409Z,100.00
2019-05-03T21:39:58.838Z,100.00
2019-05-03T21:42:28.136Z,100.00
2019-05-03T21:44:57.864Z,100.00
2019-05-03T21:47:40.862Z,100.00
2019-05-03T21:50:14.255Z,100.00
2019-05-03T21:52:43.495Z,100.00
2019-05-03T21:55:14.445Z,100.00
2019-05-03T21:57:44.991Z,100.00
2019-05-03T22:00:16.418Z,100.00
2019-05-03T22:02:45.781Z,100.00
2019-05-03T22:05:16.559Z,100.00
2019-05-03T22:07:45.909Z,100.00
2019-05-03T22:10:16.345Z,100.00
2019-05-03T22:12:45.641Z,100.00
2019-05-03T22:15:34.686Z,100.00
2019-05-03T22:18:11.750Z,100.00
2019-05-03T22:20:43.029Z,100.00
2019-05-03T22:23:19.717Z,100.00
2019-05-03T22:25:49.185Z,100.00
2019-05-03T22:28:18.810Z,100.00
2019-05-03T22:30:48.120Z,100.00
2019-05-03T22:33:17.558Z,100.00
2019-05-03T22:35:47.014Z,100.00
2019-05-03T22:38:16.729Z,100.00
2019-05-03T22:40:46.852Z,100.00
2019-05-03T22:43:16.628Z,100.00
2019-05-03T22:45:45.976Z,100.00
2019-05-03T22:48:16.056Z,100.00
2019-05-03T22:50:45.477Z,100.00
2019-05-03T22:53:14.873Z,100.00
2019-05-03T22:55:45.129Z,100.00
2019-05-03T22:58:15.405Z,100.00
2019-05-03T23:00:44.871Z,100.00
2019-05-03T23:03:14.679Z,100.00
2019-05-03T23:05:45.590Z,100.00
2019-05-03T23:08:15.154Z,100.00
2019-05-03T23:10:45.115Z,100.00
2019-05-03T23:13:15.428Z,100.00
2019-05-03T23:15:44.900Z,100.00
2019-05-03T23:18:14.348Z,100.00
2019-05-03T23:20:55.250Z,100.00
2019-05-03T23:23:42.545Z,100.00
2019-05-03T23:26:11.834Z,100.00
2019-05-03T23:28:41.146Z,100.00
2019-05-03T23:31:10.482Z,100.00
2019-05-03T23:33:39.921Z,100.00
2019-05-03T23:36:09.319Z,100.00
2019-05-03T23:38:39.088Z,100.00
2019-05-03T23:41:08.794Z,100.00
2019-05-03T23:43:38.115Z,100.00
2019-05-03T23:46:08.089Z,100.00
2019-05-03T23:48:37.646Z,100.00
2019-05-03T23:51:08.852Z,100.00
2019-05-03T23:53:38.300Z,100.00
2019-05-03T23:56:15.162Z,100.00
2019-05-03T23:58:44.655Z,100.00
